sensor_id;sensor_type;location;lat;lon;timestamp;P1;durP1;ratioP1;P2;durP2;ratioP2
58874;SDS011;44652;49.040;12.126;2023-05-19T05:35:31;10.77;;;3.35;;
58874;SDS011;44652;49.040;12.126;2023-05-19T05:37:58;9.07;;;3.28;;
58874;SDS011;44652;49.040;12.126;2023-05-19T05:40:26;10.77;;;3.10;;
58874;SDS011;44652;49.040;12.126;2023-05-19T05:42:53;9.77;;;3.08;;
58874;SDS011;44652;49.040;12.126;2023-05-19T05:45:30;8.68;;;3.22;;
58874;SDS011;44652;49.040;12.126;2023-05-19T05:47:59;7.38;;;3.05;;
58874;SDS011;44652;49.040;12.126;2023-05-19T05:50:25;11.20;;;3.28;;
58874;SDS011;44652;49.040;12.126;2023-05-19T05:52:53;10.40;;;3.72;;
58874;SDS011;44652;49.040;12.126;2023-05-19T05:55:22;9.70;;;3.08;;
58874;SDS011;44652;49.040;12.126;2023-05-19T05:57:49;8.98;;;2.90;;
58874;SDS011;44652;49.040;12.126;2023-05-19T06:00:17;9.60;;;3.00;;
58874;SDS011;44652;49.040;12.126;2023-05-19T06:02:50;7.18;;;3.13;;
58874;SDS011;44652;49.040;12.126;2023-05-19T06:05:18;7.10;;;2.75;;
58874;SDS011;44652;49.040;12.126;2023-05-19T06:07:46;7.65;;;2.65;;
58874;SDS011;44652;49.040;12.126;2023-05-19T06:10:18;11.15;;;3.20;;
58874;SDS011;44652;49.040;12.126;2023-05-19T06:12:47;12.00;;;3.15;;
58874;SDS011;44652;49.040;12.126;2023-05-19T06:15:14;8.65;;;3.20;;
58874;SDS011;44652;49.040;12.126;2023-05-19T06:18:06;7.70;;;2.95;;
58874;SDS011;44652;49.040;12.126;2023-05-19T06:20:33;9.63;;;3.92;;
58874;SDS011;44652;49.040;12.126;2023-05-19T06:23:01;9.98;;;3.72;;
58874;SDS011;44652;49.040;12.126;2023-05-19T06:25:28;9.27;;;3.33;;
58874;SDS011;44652;49.040;12.126;2023-05-19T06:27:55;8.13;;;3.27;;
58874;SDS011;44652;49.040;12.126;2023-05-19T06:30:22;7.85;;;3.08;;
58874;SDS011;44652;49.040;12.126;2023-05-19T06:33:03;7.80;;;3.17;;
58874;SDS011;44652;49.040;12.126;2023-05-19T06:35:30;8.90;;;3.63;;
58874;SDS011;44652;49.040;12.126;2023-05-19T06:37:57;10.70;;;3.20;;
58874;SDS011;44652;49.040;12.126;2023-05-19T06:40:24;12.73;;;3.90;;
58874;SDS011;44652;49.040;12.126;2023-05-19T06:42:52;9.07;;;3.03;;
58874;SDS011;44652;49.040;12.126;2023-05-19T06:45:41;11.05;;;3.53;;
58874;SDS011;44652;49.040;12.126;2023-05-19T06:48:09;6.75;;;3.10;;
58874;SDS011;44652;49.040;12.126;2023-05-19T06:50:36;8.73;;;3.33;;
58874;SDS011;44652;49.040;12.126;2023-05-19T06:53:03;9.63;;;3.10;;
58874;SDS011;44652;49.040;12.126;2023-05-19T06:55:30;9.02;;;3.30;;
58874;SDS011;44652;49.040;12.126;2023-05-19T06:57:57;9.82;;;3.30;;
58874;SDS011;44652;49.040;12.126;2023-05-19T07:00:24;8.48;;;3.15;;
58874;SDS011;44652;49.040;12.126;2023-05-19T07:02:52;9.30;;;3.30;;
58874;SDS011;44652;49.040;12.126;2023-05-19T07:05:19;7.75;;;3.38;;
58874;SDS011;44652;49.040;12.126;2023-05-19T07:07:50;8.88;;;3.58;;
58874;SDS011;44652;49.040;12.126;2023-05-19T07:10:21;8.73;;;3.03;;
58874;SDS011;44652;49.040;12.126;2023-05-19T07:12:48;7.63;;;2.78;;
58874;SDS011;44652;49.040;12.126;2023-05-19T07:15:17;11.68;;;3.70;;
58874;SDS011;44652;49.040;12.126;2023-05-19T07:17:43;9.25;;;3.20;;
58874;SDS011;44652;49.040;12.126;2023-05-19T07:20:10;6.45;;;2.83;;
58874;SDS011;44652;49.040;12.126;2023-05-19T07:22:37;9.27;;;3.50;;
58874;SDS011;44652;49.040;12.126;2023-05-19T07:25:06;8.13;;;2.92;;
58874;SDS011;44652;49.040;12.126;2023-05-19T07:27:32;8.88;;;3.10;;
58874;SDS011;44652;49.040;12.126;2023-05-19T07:29:59;11.40;;;3.92;;
58874;SDS011;44652;49.040;12.126;2023-05-19T07:32:26;9.90;;;2.83;;
58874;SDS011;44652;49.040;12.126;2023-05-19T07:34:52;8.13;;;3.10;;
58874;SDS011;44652;49.040;12.126;2023-05-19T07:37:19;8.65;;;2.90;;
58874;SDS011;44652;49.040;12.126;2023-05-19T07:39:46;9.27;;;3.08;;
58874;SDS011;44652;49.040;12.126;2023-05-19T07:42:12;6.03;;;2.70;;
58874;SDS011;44652;49.040;12.126;2023-05-19T07:44:39;7.25;;;2.80;;
58874;SDS011;44652;49.040;12.126;2023-05-19T07:47:05;9.02;;;2.80;;
58874;SDS011;44652;49.040;12.126;2023-05-19T07:49:32;7.30;;;2.90;;
58874;SDS011;44652;49.040;12.126;2023-05-19T07:51:58;7.63;;;2.60;;
58874;SDS011;44652;49.040;12.126;2023-05-19T07:54:25;10.10;;;3.00;;
58874;SDS011;44652;49.040;12.126;2023-05-19T07:56:51;10.18;;;3.38;;
58874;SDS011;44652;49.040;12.126;2023-05-19T07:59:18;10.02;;;3.45;;
58874;SDS011;44652;49.040;12.126;2023-05-19T08:01:45;9.35;;;3.00;;
58874;SDS011;44652;49.040;12.126;2023-05-19T08:04:11;9.10;;;3.00;;
58874;SDS011;44652;49.040;12.126;2023-05-19T08:06:38;9.85;;;3.72;;
58874;SDS011;44652;49.040;12.126;2023-05-19T08:09:07;7.20;;;3.00;;
58874;SDS011;44652;49.040;12.126;2023-05-19T08:11:34;12.07;;;4.50;;
58874;SDS011;44652;49.040;12.126;2023-05-19T08:14:02;6.75;;;2.72;;
58874;SDS011;44652;49.040;12.126;2023-05-19T08:16:28;20.73;;;7.38;;
58874;SDS011;44652;49.040;12.126;2023-05-19T08:18:55;12.15;;;5.13;;
58874;SDS011;44652;49.040;12.126;2023-05-19T08:21:21;5.80;;;2.35;;
58874;SDS011;44652;49.040;12.126;2023-05-19T08:23:48;10.35;;;2.63;;
58874;SDS011;44652;49.040;12.126;2023-05-19T08:26:14;5.70;;;2.25;;
58874;SDS011;44652;49.040;12.126;2023-05-19T08:28:41;7.53;;;2.60;;
58874;SDS011;44652;49.040;12.126;2023-05-19T08:31:09;6.50;;;2.30;;
58874;SDS011;44652;49.040;12.126;2023-05-19T08:33:36;13.25;;;4.65;;
58874;SDS011;44652;49.040;12.126;2023-05-19T08:36:02;5.78;;;2.10;;
58874;SDS011;44652;49.040;12.126;2023-05-19T08:38:29;7.97;;;2.50;;
58874;SDS011;44652;49.040;12.126;2023-05-19T08:40:56;11.57;;;2.97;;
58874;SDS011;44652;49.040;12.126;2023-05-19T08:43:23;7.75;;;2.50;;
58874;SDS011;44652;49.040;12.126;2023-05-19T08:45:50;8.02;;;2.38;;
58874;SDS011;44652;49.040;12.126;2023-05-19T08:48:19;9.93;;;2.65;;
58874;SDS011;44652;49.040;12.126;2023-05-19T08:53:23;6.68;;;2.08;;
58874;SDS011;44652;49.040;12.126;2023-05-19T08:56:16;7.32;;;2.30;;
58874;SDS011;44652;49.040;12.126;2023-05-19T08:58:44;7.53;;;2.42;;
58874;SDS011;44652;49.040;12.126;2023-05-19T09:01:12;8.40;;;2.50;;
58874;SDS011;44652;49.040;12.126;2023-05-19T09:03:39;13.90;;;3.22;;
58874;SDS011;44652;49.040;12.126;2023-05-19T09:06:06;6.82;;;2.00;;
58874;SDS011;44652;49.040;12.126;2023-05-19T09:08:39;11.25;;;3.28;;
58874;SDS011;44652;49.040;12.126;2023-05-19T09:11:07;5.78;;;2.30;;
58874;SDS011;44652;49.040;12.126;2023-05-19T09:13:34;5.55;;;2.30;;
58874;SDS011;44652;49.040;12.126;2023-05-19T09:16:01;7.93;;;3.00;;
58874;SDS011;44652;49.040;12.126;2023-05-19T09:18:28;7.07;;;2.80;;
58874;SDS011;44652;49.040;12.126;2023-05-19T09:20:57;7.65;;;2.40;;
58874;SDS011;44652;49.040;12.126;2023-05-19T09:23:28;5.70;;;2.35;;
58874;SDS011;44652;49.040;12.126;2023-05-19T09:25:55;4.50;;;1.95;;
58874;SDS011;44652;49.040;12.126;2023-05-19T09:28:26;6.30;;;2.80;;
58874;SDS011;44652;49.040;12.126;2023-05-19T09:31:04;7.63;;;2.45;;
58874;SDS011;44652;49.040;12.126;2023-05-19T09:33:31;4.32;;;2.10;;
58874;SDS011;44652;49.040;12.126;2023-05-19T09:35:58;6.53;;;2.03;;
58874;SDS011;44652;49.040;12.126;2023-05-19T09:38:26;6.75;;;2.08;;
58874;SDS011;44652;49.040;12.126;2023-05-19T09:40:54;4.63;;;1.88;;
58874;SDS011;44652;49.040;12.126;2023-05-19T09:43:22;8.88;;;2.30;;
58874;SDS011;44652;49.040;12.126;2023-05-19T09:45:58;4.38;;;2.08;;
58874;SDS011;44652;49.040;12.126;2023-05-19T09:48:25;6.60;;;2.15;;
58874;SDS011;44652;49.040;12.126;2023-05-19T09:50:53;5.75;;;2.35;;
58874;SDS011;44652;49.040;12.126;2023-05-19T09:53:20;7.60;;;2.38;;
58874;SDS011;44652;49.040;12.126;2023-05-19T09:55:46;6.35;;;2.30;;
58874;SDS011;44652;49.040;12.126;2023-05-19T09:58:22;6.50;;;2.30;;
58874;SDS011;44652;49.040;12.126;2023-05-19T10:00:49;5.18;;;2.10;;
58874;SDS011;44652;49.040;12.126;2023-05-19T10:03:16;6.50;;;2.35;;
58874;SDS011;44652;49.040;12.126;2023-05-19T10:05:44;7.00;;;2.50;;
58874;SDS011;44652;49.040;12.126;2023-05-19T10:08:11;5.30;;;2.35;;
58874;SDS011;44652;49.040;12.126;2023-05-19T10:10:38;5.72;;;1.98;;
58874;SDS011;44652;49.040;12.126;2023-05-19T10:13:05;5.68;;;2.20;;
58874;SDS011;44652;49.040;12.126;2023-05-19T10:15:32;5.47;;;1.98;;
58874;SDS011;44652;49.040;12.126;2023-05-19T10:18:12;5.95;;;2.42;;
58874;SDS011;44652;49.040;12.126;2023-05-19T10:20:40;5.30;;;2.28;;
58874;SDS011;44652;49.040;12.126;2023-05-19T10:23:07;3.83;;;1.98;;
58874;SDS011;44652;49.040;12.126;2023-05-19T10:25:37;4.75;;;2.25;;
58874;SDS011;44652;49.040;12.126;2023-05-19T10:28:04;6.70;;;2.70;;
58874;SDS011;44652;49.040;12.126;2023-05-19T10:30:37;7.82;;;2.50;;
58874;SDS011;44652;49.040;12.126;2023-05-19T10:33:05;8.00;;;2.33;;
58874;SDS011;44652;49.040;12.126;2023-05-19T10:45:59;3.97;;;1.83;;
58874;SDS011;44652;49.040;12.126;2023-05-19T10:48:26;5.70;;;1.88;;
58874;SDS011;44652;49.040;12.126;2023-05-19T10:50:58;4.82;;;1.75;;
58874;SDS011;44652;49.040;12.126;2023-05-19T10:53:29;3.63;;;1.85;;
58874;SDS011;44652;49.040;12.126;2023-05-19T10:55:56;4.05;;;1.80;;
58874;SDS011;44652;49.040;12.126;2023-05-19T11:01:16;4.78;;;2.00;;
58874;SDS011;44652;49.040;12.126;2023-05-19T11:03:44;6.00;;;2.53;;
58874;SDS011;44652;49.040;12.126;2023-05-19T11:06:27;3.92;;;1.67;;
58874;SDS011;44652;49.040;12.126;2023-05-19T11:08:58;4.45;;;2.28;;
58874;SDS011;44652;49.040;12.126;2023-05-19T11:11:48;5.72;;;1.70;;
58874;SDS011;44652;49.040;12.126;2023-05-19T11:14:22;4.45;;;2.00;;
58874;SDS011;44652;49.040;12.126;2023-05-19T11:16:49;5.20;;;1.80;;
58874;SDS011;44652;49.040;12.126;2023-05-19T11:19:38;3.47;;;1.70;;
58874;SDS011;44652;49.040;12.126;2023-05-19T11:22:08;3.72;;;1.77;;
58874;SDS011;44652;49.040;12.126;2023-05-19T11:24:35;4.03;;;2.05;;
58874;SDS011;44652;49.040;12.126;2023-05-19T11:29:47;3.40;;;1.60;;
58874;SDS011;44652;49.040;12.126;2023-05-19T11:32:14;4.82;;;1.60;;
58874;SDS011;44652;49.040;12.126;2023-05-19T11:34:40;5.40;;;1.73;;
58874;SDS011;44652;49.040;12.126;2023-05-19T11:37:07;5.82;;;1.90;;
58874;SDS011;44652;49.040;12.126;2023-05-19T11:39:34;4.53;;;1.90;;
58874;SDS011;44652;49.040;12.126;2023-05-19T11:42:01;6.80;;;1.98;;
58874;SDS011;44652;49.040;12.126;2023-05-19T11:44:27;5.47;;;1.83;;
58874;SDS011;44652;49.040;12.126;2023-05-19T11:46:54;5.20;;;1.73;;
58874;SDS011;44652;49.040;12.126;2023-05-19T11:49:22;4.78;;;2.10;;
58874;SDS011;44652;49.040;12.126;2023-05-19T11:51:49;5.22;;;1.85;;
58874;SDS011;44652;49.040;12.126;2023-05-19T11:54:15;8.70;;;1.65;;
58874;SDS011;44652;49.040;12.126;2023-05-19T11:56:44;5.38;;;2.00;;
58874;SDS011;44652;49.040;12.126;2023-05-19T11:59:11;4.00;;;1.50;;
58874;SDS011;44652;49.040;12.126;2023-05-19T12:01:37;4.43;;;1.70;;
58874;SDS011;44652;49.040;12.126;2023-05-19T12:04:07;4.47;;;1.80;;
58874;SDS011;44652;49.040;12.126;2023-05-19T12:06:35;4.53;;;1.67;;
58874;SDS011;44652;49.040;12.126;2023-05-19T12:09:03;5.75;;;1.77;;
58874;SDS011;44652;49.040;12.126;2023-05-19T12:11:30;4.72;;;1.80;;
58874;SDS011;44652;49.040;12.126;2023-05-19T12:13:57;6.05;;;1.80;;
58874;SDS011;44652;49.040;12.126;2023-05-19T12:16:31;3.33;;;1.67;;
58874;SDS011;44652;49.040;12.126;2023-05-19T12:18:58;5.95;;;1.60;;
58874;SDS011;44652;49.040;12.126;2023-05-19T12:21:25;4.22;;;1.50;;
58874;SDS011;44652;49.040;12.126;2023-05-19T12:23:59;6.70;;;1.70;;
58874;SDS011;44652;49.040;12.126;2023-05-19T12:26:26;4.55;;;2.13;;
58874;SDS011;44652;49.040;12.126;2023-05-19T12:28:53;3.50;;;1.70;;
58874;SDS011;44652;49.040;12.126;2023-05-19T12:31:20;5.05;;;1.77;;
58874;SDS011;44652;49.040;12.126;2023-05-19T12:33:49;4.30;;;1.60;;
58874;SDS011;44652;49.040;12.126;2023-05-19T12:36:17;5.78;;;1.60;;
58874;SDS011;44652;49.040;12.126;2023-05-19T12:38:44;3.53;;;1.60;;
58874;SDS011;44652;49.040;12.126;2023-05-19T12:41:11;6.03;;;1.77;;
58874;SDS011;44652;49.040;12.126;2023-05-19T12:43:39;3.15;;;1.70;;
58874;SDS011;44652;49.040;12.126;2023-05-19T12:46:09;4.20;;;1.67;;
58874;SDS011;44652;49.040;12.126;2023-05-19T12:48:40;4.18;;;1.70;;
58874;SDS011;44652;49.040;12.126;2023-05-19T12:51:07;4.78;;;1.70;;
58874;SDS011;44652;49.040;12.126;2023-05-19T12:53:33;3.80;;;1.77;;
58874;SDS011;44652;49.040;12.126;2023-05-19T12:56:00;4.07;;;1.85;;
58874;SDS011;44652;49.040;12.126;2023-05-19T12:58:27;5.45;;;1.70;;
58874;SDS011;44652;49.040;12.126;2023-05-19T13:00:57;2.88;;;1.70;;
58874;SDS011;44652;49.040;12.126;2023-05-19T13:03:25;4.13;;;1.67;;
58874;SDS011;44652;49.040;12.126;2023-05-19T13:05:51;4.60;;;1.85;;
58874;SDS011;44652;49.040;12.126;2023-05-19T13:08:18;5.13;;;1.60;;
58874;SDS011;44652;49.040;12.126;2023-05-19T13:10:46;6.05;;;2.03;;
58874;SDS011;44652;49.040;12.126;2023-05-19T13:13:14;2.97;;;1.42;;
58874;SDS011;44652;49.040;12.126;2023-05-19T13:15:42;9.63;;;1.83;;
58874;SDS011;44652;49.040;12.126;2023-05-19T13:20:36;2.72;;;1.50;;
58874;SDS011;44652;49.040;12.126;2023-05-19T13:23:03;5.38;;;1.70;;
58874;SDS011;44652;49.040;12.126;2023-05-19T13:25:31;3.97;;;1.70;;
58874;SDS011;44652;49.040;12.126;2023-05-19T13:27:58;5.45;;;1.70;;
58874;SDS011;44652;49.040;12.126;2023-05-19T13:30:26;3.05;;;1.58;;
58874;SDS011;44652;49.040;12.126;2023-05-19T13:32:53;3.95;;;1.60;;
58874;SDS011;44652;49.040;12.126;2023-05-19T13:35:20;4.55;;;1.80;;
58874;SDS011;44652;49.040;12.126;2023-05-19T13:37:47;6.50;;;1.67;;
58874;SDS011;44652;49.040;12.126;2023-05-19T13:40:14;7.05;;;1.70;;
58874;SDS011;44652;49.040;12.126;2023-05-19T13:42:42;5.13;;;1.58;;
58874;SDS011;44652;49.040;12.126;2023-05-19T13:45:08;5.45;;;1.55;;
58874;SDS011;44652;49.040;12.126;2023-05-19T13:47:35;4.65;;;1.60;;
58874;SDS011;44652;49.040;12.126;2023-05-19T13:50:02;4.53;;;1.80;;
58874;SDS011;44652;49.040;12.126;2023-05-19T13:52:30;4.85;;;1.83;;
58874;SDS011;44652;49.040;12.126;2023-05-19T13:54:56;4.57;;;1.50;;
58874;SDS011;44652;49.040;12.126;2023-05-19T13:57:23;3.65;;;1.63;;
58874;SDS011;44652;49.040;12.126;2023-05-19T13:59:52;3.28;;;1.67;;
58874;SDS011;44652;49.040;12.126;2023-05-19T14:02:37;4.68;;;1.90;;
58874;SDS011;44652;49.040;12.126;2023-05-19T14:05:04;2.55;;;1.60;;
58874;SDS011;44652;49.040;12.126;2023-05-19T14:07:32;3.75;;;1.65;;
58874;SDS011;44652;49.040;12.126;2023-05-19T14:10:01;4.60;;;1.65;;
58874;SDS011;44652;49.040;12.126;2023-05-19T14:12:28;4.78;;;1.70;;
58874;SDS011;44652;49.040;12.126;2023-05-19T14:15:08;4.63;;;1.67;;
58874;SDS011;44652;49.040;12.126;2023-05-19T14:17:36;3.70;;;1.80;;
58874;SDS011;44652;49.040;12.126;2023-05-19T14:20:03;3.80;;;2.00;;
58874;SDS011;44652;49.040;12.126;2023-05-19T14:22:30;4.70;;;1.80;;
58874;SDS011;44652;49.040;12.126;2023-05-19T14:24:57;3.38;;;1.88;;
58874;SDS011;44652;49.040;12.126;2023-05-19T14:29:52;4.53;;;1.75;;
58874;SDS011;44652;49.040;12.126;2023-05-19T14:32:18;3.75;;;1.67;;
58874;SDS011;44652;49.040;12.126;2023-05-19T14:34:45;3.13;;;1.50;;
58874;SDS011;44652;49.040;12.126;2023-05-19T14:37:12;3.92;;;1.73;;
58874;SDS011;44652;49.040;12.126;2023-05-19T14:39:38;5.50;;;1.77;;
58874;SDS011;44652;49.040;12.126;2023-05-19T14:42:05;2.78;;;1.50;;
58874;SDS011;44652;49.040;12.126;2023-05-19T14:44:32;3.15;;;1.60;;
58874;SDS011;44652;49.040;12.126;2023-05-19T14:46:59;4.82;;;1.92;;
58874;SDS011;44652;49.040;12.126;2023-05-19T14:49:26;3.70;;;1.67;;
58874;SDS011;44652;49.040;12.126;2023-05-19T14:51:53;4.38;;;1.77;;
58874;SDS011;44652;49.040;12.126;2023-05-19T14:54:19;3.33;;;1.60;;
58874;SDS011;44652;49.040;12.126;2023-05-19T14:56:46;3.75;;;1.70;;
58874;SDS011;44652;49.040;12.126;2023-05-19T14:59:12;4.35;;;2.03;;
58874;SDS011;44652;49.040;12.126;2023-05-19T15:01:39;3.90;;;1.60;;
58874;SDS011;44652;49.040;12.126;2023-05-19T15:04:06;5.03;;;2.28;;
58874;SDS011;44652;49.040;12.126;2023-05-19T15:06:32;3.65;;;1.63;;
58874;SDS011;44652;49.040;12.126;2023-05-19T15:08:59;7.88;;;2.08;;
58874;SDS011;44652;49.040;12.126;2023-05-19T15:11:25;3.92;;;2.10;;
58874;SDS011;44652;49.040;12.126;2023-05-19T15:13:52;3.90;;;1.98;;
58874;SDS011;44652;49.040;12.126;2023-05-19T15:16:19;3.92;;;2.15;;
58874;SDS011;44652;49.040;12.126;2023-05-19T15:18:45;5.38;;;1.73;;
58874;SDS011;44652;49.040;12.126;2023-05-19T15:21:15;4.93;;;2.15;;
58874;SDS011;44652;49.040;12.126;2023-05-19T15:23:41;3.40;;;1.90;;
58874;SDS011;44652;49.040;12.126;2023-05-19T15:26:08;3.25;;;1.60;;
58874;SDS011;44652;49.040;12.126;2023-05-19T15:28:34;3.40;;;1.58;;
58874;SDS011;44652;49.040;12.126;2023-05-19T15:31:01;5.43;;;1.90;;
58874;SDS011;44652;49.040;12.126;2023-05-19T15:33:28;5.05;;;1.88;;
58874;SDS011;44652;49.040;12.126;2023-05-19T15:35:55;4.03;;;1.98;;
58874;SDS011;44652;49.040;12.126;2023-05-19T15:38:22;4.60;;;2.10;;
58874;SDS011;44652;49.040;12.126;2023-05-19T15:40:48;6.32;;;2.10;;
58874;SDS011;44652;49.040;12.126;2023-05-19T15:43:15;5.45;;;2.03;;
58874;SDS011;44652;49.040;12.126;2023-05-19T15:45:42;3.28;;;2.10;;
58874;SDS011;44652;49.040;12.126;2023-05-19T15:48:09;4.13;;;2.20;;
58874;SDS011;44652;49.040;12.126;2023-05-19T15:50:36;5.22;;;2.47;;
58874;SDS011;44652;49.040;12.126;2023-05-19T15:53:03;7.72;;;2.00;;
58874;SDS011;44652;49.040;12.126;2023-05-19T15:55:32;3.47;;;1.85;;
58874;SDS011;44652;49.040;12.126;2023-05-19T15:57:58;9.18;;;2.55;;
58874;SDS011;44652;49.040;12.126;2023-05-19T16:00:25;4.22;;;1.90;;
58874;SDS011;44652;49.040;12.126;2023-05-19T16:02:51;3.55;;;2.10;;
58874;SDS011;44652;49.040;12.126;2023-05-19T16:05:18;4.70;;;2.03;;
58874;SDS011;44652;49.040;12.126;2023-05-19T16:07:45;5.20;;;2.53;;
58874;SDS011;44652;49.040;12.126;2023-05-19T16:10:11;5.55;;;2.00;;
58874;SDS011;44652;49.040;12.126;2023-05-19T16:12:38;3.38;;;1.80;;
58874;SDS011;44652;49.040;12.126;2023-05-19T16:15:04;4.18;;;2.13;;
58874;SDS011;44652;49.040;12.126;2023-05-19T16:17:31;3.08;;;2.00;;
58874;SDS011;44652;49.040;12.126;2023-05-19T16:19:58;3.60;;;2.13;;
58874;SDS011;44652;49.040;12.126;2023-05-19T16:22:24;3.38;;;1.80;;
58874;SDS011;44652;49.040;12.126;2023-05-19T16:24:51;8.52;;;2.53;;
58874;SDS011;44652;49.040;12.126;2023-05-19T16:27:18;5.38;;;1.88;;
58874;SDS011;44652;49.040;12.126;2023-05-19T16:29:44;3.85;;;1.95;;
58874;SDS011;44652;49.040;12.126;2023-05-19T16:32:11;7.10;;;2.05;;
58874;SDS011;44652;49.040;12.126;2023-05-19T16:34:38;4.28;;;2.10;;
58874;SDS011;44652;49.040;12.126;2023-05-19T16:37:04;4.00;;;2.00;;
58874;SDS011;44652;49.040;12.126;2023-05-19T16:39:31;3.25;;;1.67;;
58874;SDS011;44652;49.040;12.126;2023-05-19T16:41:58;3.35;;;1.90;;
58874;SDS011;44652;49.040;12.126;2023-05-19T16:44:24;4.88;;;2.13;;
58874;SDS011;44652;49.040;12.126;2023-05-19T16:46:51;4.72;;;2.03;;
58874;SDS011;44652;49.040;12.126;2023-05-19T16:49:18;3.42;;;1.88;;
58874;SDS011;44652;49.040;12.126;2023-05-19T16:51:44;4.57;;;2.10;;
58874;SDS011;44652;49.040;12.126;2023-05-19T16:54:14;3.65;;;2.17;;
58874;SDS011;44652;49.040;12.126;2023-05-19T16:56:40;3.72;;;2.00;;
58874;SDS011;44652;49.040;12.126;2023-05-19T16:59:07;4.38;;;1.88;;
58874;SDS011;44652;49.040;12.126;2023-05-19T17:01:34;3.75;;;1.95;;
58874;SDS011;44652;49.040;12.126;2023-05-19T17:04:01;3.67;;;2.13;;
58874;SDS011;44652;49.040;12.126;2023-05-19T17:06:27;4.13;;;1.95;;
58874;SDS011;44652;49.040;12.126;2023-05-19T17:08:54;5.82;;;2.00;;
58874;SDS011;44652;49.040;12.126;2023-05-19T17:11:20;5.30;;;2.63;;
58874;SDS011;44652;49.040;12.126;2023-05-19T17:13:47;6.25;;;2.15;;
58874;SDS011;44652;49.040;12.126;2023-05-19T17:16:14;3.70;;;2.20;;
58874;SDS011;44652;49.040;12.126;2023-05-19T17:18:40;4.40;;;1.95;;
58874;SDS011;44652;49.040;12.126;2023-05-19T17:21:07;4.35;;;2.28;;
58874;SDS011;44652;49.040;12.126;2023-05-19T17:23:33;4.35;;;2.20;;
58874;SDS011;44652;49.040;12.126;2023-05-19T17:26:00;3.30;;;2.13;;
58874;SDS011;44652;49.040;12.126;2023-05-19T17:28:27;4.03;;;2.20;;
58874;SDS011;44652;49.040;12.126;2023-05-19T17:30:54;4.85;;;2.40;;
58874;SDS011;44652;49.040;12.126;2023-05-19T17:33:21;4.03;;;2.28;;
58874;SDS011;44652;49.040;12.126;2023-05-19T17:35:48;3.30;;;2.20;;
58874;SDS011;44652;49.040;12.126;2023-05-19T17:38:14;4.28;;;2.20;;
58874;SDS011;44652;49.040;12.126;2023-05-19T17:40:41;5.28;;;2.30;;
58874;SDS011;44652;49.040;12.126;2023-05-19T17:43:07;4.22;;;2.15;;
58874;SDS011;44652;49.040;12.126;2023-05-19T17:45:34;4.00;;;2.20;;
58874;SDS011;44652;49.040;12.126;2023-05-19T17:48:00;4.25;;;2.60;;
58874;SDS011;44652;49.040;12.126;2023-05-19T17:50:27;5.07;;;2.70;;
58874;SDS011;44652;49.040;12.126;2023-05-19T17:52:54;7.00;;;2.95;;
58874;SDS011;44652;49.040;12.126;2023-05-19T17:55:21;5.00;;;2.75;;
58874;SDS011;44652;49.040;12.126;2023-05-19T17:57:50;6.28;;;3.22;;
58874;SDS011;44652;49.040;12.126;2023-05-19T18:00:16;5.30;;;3.17;;
58874;SDS011;44652;49.040;12.126;2023-05-19T18:02:43;3.85;;;2.55;;
58874;SDS011;44652;49.040;12.126;2023-05-19T18:05:10;7.72;;;2.53;;
58874;SDS011;44652;49.040;12.126;2023-05-19T18:07:37;5.85;;;2.78;;
58874;SDS011;44652;49.040;12.126;2023-05-19T18:10:06;7.57;;;4.60;;
58874;SDS011;44652;49.040;12.126;2023-05-19T18:12:33;5.40;;;3.50;;
58874;SDS011;44652;49.040;12.126;2023-05-19T18:15:00;7.90;;;4.72;;
58874;SDS011;44652;49.040;12.126;2023-05-19T18:17:26;6.13;;;3.80;;
58874;SDS011;44652;49.040;12.126;2023-05-19T18:19:53;7.30;;;3.00;;
58874;SDS011;44652;49.040;12.126;2023-05-19T18:22:19;5.10;;;2.70;;
58874;SDS011;44652;49.040;12.126;2023-05-19T18:24:46;5.47;;;2.72;;
58874;SDS011;44652;49.040;12.126;2023-05-19T18:27:13;5.10;;;2.67;;
58874;SDS011;44652;49.040;12.126;2023-05-19T18:29:39;4.80;;;2.85;;
58874;SDS011;44652;49.040;12.126;2023-05-19T18:32:06;5.05;;;2.65;;
58874;SDS011;44652;49.040;12.126;2023-05-19T18:34:33;4.00;;;2.50;;
58874;SDS011;44652;49.040;12.126;2023-05-19T18:36:59;5.70;;;3.08;;
58874;SDS011;44652;49.040;12.126;2023-05-19T18:39:26;5.85;;;3.00;;
58874;SDS011;44652;49.040;12.126;2023-05-19T18:44:21;4.63;;;2.88;;
58874;SDS011;44652;49.040;12.126;2023-05-19T18:46:47;6.40;;;3.20;;
58874;SDS011;44652;49.040;12.126;2023-05-19T18:49:14;6.22;;;2.83;;
58874;SDS011;44652;49.040;12.126;2023-05-19T18:51:41;7.20;;;3.17;;
58874;SDS011;44652;49.040;12.126;2023-05-19T18:54:07;7.05;;;2.78;;
58874;SDS011;44652;49.040;12.126;2023-05-19T18:56:34;5.60;;;2.75;;
58874;SDS011;44652;49.040;12.126;2023-05-19T18:59:01;4.07;;;2.53;;
58874;SDS011;44652;49.040;12.126;2023-05-19T19:01:27;6.55;;;3.10;;
58874;SDS011;44652;49.040;12.126;2023-05-19T19:03:54;4.97;;;3.05;;
58874;SDS011;44652;49.040;12.126;2023-05-19T19:06:21;4.40;;;2.45;;
58874;SDS011;44652;49.040;12.126;2023-05-19T19:08:48;5.03;;;3.00;;
58874;SDS011;44652;49.040;12.126;2023-05-19T19:11:15;3.83;;;2.60;;
58874;SDS011;44652;49.040;12.126;2023-05-19T19:13:41;4.50;;;2.65;;
58874;SDS011;44652;49.040;12.126;2023-05-19T19:16:09;6.07;;;2.92;;
58874;SDS011;44652;49.040;12.126;2023-05-19T19:18:35;5.72;;;3.30;;
58874;SDS011;44652;49.040;12.126;2023-05-19T19:21:02;5.28;;;2.60;;
58874;SDS011;44652;49.040;12.126;2023-05-19T19:23:31;5.63;;;2.70;;
58874;SDS011;44652;49.040;12.126;2023-05-19T19:25:57;6.60;;;3.03;;
58874;SDS011;44652;49.040;12.126;2023-05-19T19:28:24;5.28;;;3.40;;
58874;SDS011;44652;49.040;12.126;2023-05-19T19:30:51;5.25;;;3.10;;
58874;SDS011;44652;49.040;12.126;2023-05-19T19:33:17;4.45;;;2.90;;
58874;SDS011;44652;49.040;12.126;2023-05-19T19:35:44;4.93;;;2.97;;
58874;SDS011;44652;49.040;12.126;2023-05-19T19:38:12;4.65;;;2.80;;
58874;SDS011;44652;49.040;12.126;2023-05-19T19:40:39;4.75;;;3.05;;
58874;SDS011;44652;49.040;12.126;2023-05-19T19:43:05;5.00;;;2.83;;
58874;SDS011;44652;49.040;12.126;2023-05-19T19:45:32;5.10;;;3.00;;
58874;SDS011;44652;49.040;12.126;2023-05-19T19:48:00;4.95;;;2.85;;
58874;SDS011;44652;49.040;12.126;2023-05-19T19:50:27;4.80;;;2.80;;
58874;SDS011;44652;49.040;12.126;2023-05-19T19:52:53;4.95;;;2.88;;
58874;SDS011;44652;49.040;12.126;2023-05-19T19:55:20;4.95;;;3.08;;
58874;SDS011;44652;49.040;12.126;2023-05-19T19:57:46;6.28;;;3.00;;
58874;SDS011;44652;49.040;12.126;2023-05-19T20:00:14;6.05;;;3.15;;
58874;SDS011;44652;49.040;12.126;2023-05-19T20:02:41;4.55;;;3.08;;
58874;SDS011;44652;49.040;12.126;2023-05-19T20:05:28;4.25;;;2.75;;
58874;SDS011;44652;49.040;12.126;2023-05-19T20:07:55;7.32;;;3.38;;
58874;SDS011;44652;49.040;12.126;2023-05-19T20:10:21;5.45;;;3.10;;
58874;SDS011;44652;49.040;12.126;2023-05-19T20:12:48;6.97;;;3.28;;
58874;SDS011;44652;49.040;12.126;2023-05-19T20:15:15;4.38;;;2.83;;
58874;SDS011;44652;49.040;12.126;2023-05-19T20:17:42;4.95;;;3.30;;
58874;SDS011;44652;49.040;12.126;2023-05-19T20:20:09;6.88;;;3.58;;
58874;SDS011;44652;49.040;12.126;2023-05-19T20:22:37;4.07;;;2.83;;
58874;SDS011;44652;49.040;12.126;2023-05-19T20:25:04;5.80;;;2.90;;
58874;SDS011;44652;49.040;12.126;2023-05-19T20:27:31;4.72;;;3.08;;
58874;SDS011;44652;49.040;12.126;2023-05-19T20:29:57;4.13;;;2.83;;
58874;SDS011;44652;49.040;12.126;2023-05-19T20:32:24;6.70;;;3.20;;
58874;SDS011;44652;49.040;12.126;2023-05-19T20:34:50;4.18;;;3.03;;
58874;SDS011;44652;49.040;12.126;2023-05-19T20:37:17;5.40;;;3.22;;